sensor_id;sensor_type;location;lat;lon;timestamp;P1;durP1;ratioP1;P2;durP2;ratioP2
12177;SDS011;6152;48.728;9.256;2022-07-29T00:00:16;9.13;;;8.13;;
12177;SDS011;6152;48.728;9.256;2022-07-29T00:02:42;8.85;;;7.95;;
12177;SDS011;6152;48.728;9.256;2022-07-29T00:05:08;7.82;;;7.03;;
12177;SDS011;6152;48.728;9.256;2022-07-29T00:07:36;8.38;;;7.60;;
12177;SDS011;6152;48.728;9.256;2022-07-29T00:10:03;8.13;;;7.20;;
12177;SDS011;6152;48.728;9.256;2022-07-29T00:12:30;7.85;;;6.72;;
12177;SDS011;6152;48.728;9.256;2022-07-29T00:14:56;7.20;;;6.50;;
12177;SDS011;6152;48.728;9.256;2022-07-29T00:17:25;7.15;;;6.53;;
12177;SDS011;6152;48.728;9.256;2022-07-29T00:19:51;7.85;;;6.35;;
12177;SDS011;6152;48.728;9.256;2022-07-29T00:22:18;7.38;;;6.63;;
12177;SDS011;6152;48.728;9.256;2022-07-29T00:24:46;7.72;;;6.20;;
12177;SDS011;6152;48.728;9.256;2022-07-29T00:27:13;7.43;;;6.68;;
12177;SDS011;6152;48.728;9.256;2022-07-29T00:29:40;6.88;;;6.20;;
12177;SDS011;6152;48.728;9.256;2022-07-29T00:32:06;7.93;;;6.47;;
12177;SDS011;6152;48.728;9.256;2022-07-29T00:34:32;7.78;;;6.97;;
12177;SDS011;6152;48.728;9.256;2022-07-29T00:37:17;8.05;;;6.63;;
12177;SDS011;6152;48.728;9.256;2022-07-29T00:39:43;7.75;;;6.95;;
12177;SDS011;6152;48.728;9.256;2022-07-29T00:42:09;7.97;;;6.80;;
12177;SDS011;6152;48.728;9.256;2022-07-29T00:44:39;7.13;;;6.43;;
12177;SDS011;6152;48.728;9.256;2022-07-29T00:47:06;8.75;;;7.85;;
12177;SDS011;6152;48.728;9.256;2022-07-29T00:49:33;8.27;;;7.47;;
12177;SDS011;6152;48.728;9.256;2022-07-29T00:52:00;10.93;;;7.13;;
12177;SDS011;6152;48.728;9.256;2022-07-29T00:54:28;9.75;;;7.68;;
12177;SDS011;6152;48.728;9.256;2022-07-29T00:56:55;8.50;;;7.45;;
12177;SDS011;6152;48.728;9.256;2022-07-29T00:59:23;7.57;;;6.88;;
12177;SDS011;6152;48.728;9.256;2022-07-29T01:01:49;7.90;;;7.20;;
12177;SDS011;6152;48.728;9.256;2022-07-29T01:04:15;8.27;;;6.57;;
12177;SDS011;6152;48.728;9.256;2022-07-29T01:06:42;8.90;;;7.30;;
12177;SDS011;6152;48.728;9.256;2022-07-29T01:09:09;8.05;;;7.25;;
12177;SDS011;6152;48.728;9.256;2022-07-29T01:11:35;7.78;;;6.90;;
12177;SDS011;6152;48.728;9.256;2022-07-29T01:14:02;7.32;;;6.63;;
12177;SDS011;6152;48.728;9.256;2022-07-29T01:16:32;8.35;;;7.50;;
12177;SDS011;6152;48.728;9.256;2022-07-29T01:21:51;7.95;;;7.18;;
12177;SDS011;6152;48.728;9.256;2022-07-29T01:29:33;8.90;;;7.07;;
12177;SDS011;6152;48.728;9.256;2022-07-29T01:32:22;10.13;;;7.32;;
12177;SDS011;6152;48.728;9.256;2022-07-29T01:34:54;7.47;;;6.78;;
12177;SDS011;6152;48.728;9.256;2022-07-29T01:40:11;7.65;;;6.85;;
12177;SDS011;6152;48.728;9.256;2022-07-29T01:42:43;7.22;;;6.57;;
12177;SDS011;6152;48.728;9.256;2022-07-29T01:48:02;6.55;;;5.53;;
12177;SDS011;6152;48.728;9.256;2022-07-29T01:50:58;6.78;;;6.05;;
12177;SDS011;6152;48.728;9.256;2022-07-29T01:56:31;6.15;;;5.55;;
12177;SDS011;6152;48.728;9.256;2022-07-29T01:59:01;9.00;;;5.40;;
12177;SDS011;6152;48.728;9.256;2022-07-29T02:01:29;6.18;;;5.63;;
12177;SDS011;6152;48.728;9.256;2022-07-29T02:03:58;6.03;;;5.53;;
12177;SDS011;6152;48.728;9.256;2022-07-29T02:06:27;7.85;;;5.28;;
12177;SDS011;6152;48.728;9.256;2022-07-29T02:08:57;7.40;;;5.45;;
12177;SDS011;6152;48.728;9.256;2022-07-29T02:11:26;6.22;;;5.47;;
12177;SDS011;6152;48.728;9.256;2022-07-29T02:13:53;7.60;;;5.85;;
12177;SDS011;6152;48.728;9.256;2022-07-29T02:16:22;6.25;;;5.65;;
12177;SDS011;6152;48.728;9.256;2022-07-29T02:18:52;6.28;;;5.70;;
12177;SDS011;6152;48.728;9.256;2022-07-29T02:21:21;5.72;;;5.22;;
12177;SDS011;6152;48.728;9.256;2022-07-29T02:23:51;6.47;;;5.95;;
12177;SDS011;6152;48.728;9.256;2022-07-29T02:26:19;5.93;;;5.13;;
12177;SDS011;6152;48.728;9.256;2022-07-29T02:28:48;7.63;;;5.88;;
12177;SDS011;6152;48.728;9.256;2022-07-29T02:31:18;7.97;;;5.68;;
12177;SDS011;6152;48.728;9.256;2022-07-29T02:33:47;6.30;;;5.40;;
12177;SDS011;6152;48.728;9.256;2022-07-29T02:36:14;5.93;;;5.35;;
12177;SDS011;6152;48.728;9.256;2022-07-29T02:38:42;5.82;;;5.25;;
12177;SDS011;6152;48.728;9.256;2022-07-29T02:43:58;6.10;;;5.57;;
12177;SDS011;6152;48.728;9.256;2022-07-29T02:46:33;6.18;;;5.57;;
12177;SDS011;6152;48.728;9.256;2022-07-29T02:49:04;5.78;;;5.35;;
12177;SDS011;6152;48.728;9.256;2022-07-29T02:51:55;6.20;;;5.63;;
12177;SDS011;6152;48.728;9.256;2022-07-29T02:54:42;8.23;;;5.55;;
12177;SDS011;6152;48.728;9.256;2022-07-29T02:57:26;6.45;;;5.63;;
12177;SDS011;6152;48.728;9.256;2022-07-29T03:00:01;6.22;;;5.63;;
12177;SDS011;6152;48.728;9.256;2022-07-29T03:02:33;6.18;;;5.55;;
12177;SDS011;6152;48.728;9.256;2022-07-29T03:05:06;6.45;;;5.72;;
12177;SDS011;6152;48.728;9.256;2022-07-29T03:07:35;5.90;;;5.10;;
12177;SDS011;6152;48.728;9.256;2022-07-29T03:10:03;7.95;;;5.97;;
12177;SDS011;6152;48.728;9.256;2022-07-29T03:12:31;6.03;;;5.38;;
12177;SDS011;6152;48.728;9.256;2022-07-29T03:14:57;5.13;;;4.63;;
12177;SDS011;6152;48.728;9.256;2022-07-29T03:17:25;5.57;;;5.05;;
12177;SDS011;6152;48.728;9.256;2022-07-29T03:19:52;5.75;;;5.18;;
12177;SDS011;6152;48.728;9.256;2022-07-29T03:22:18;5.90;;;5.40;;
12177;SDS011;6152;48.728;9.256;2022-07-29T03:24:45;5.72;;;5.20;;
12177;SDS011;6152;48.728;9.256;2022-07-29T03:27:11;5.72;;;5.22;;
12177;SDS011;6152;48.728;9.256;2022-07-29T03:29:37;5.95;;;5.35;;
12177;SDS011;6152;48.728;9.256;2022-07-29T03:32:04;7.47;;;5.32;;
12177;SDS011;6152;48.728;9.256;2022-07-29T03:34:30;5.15;;;4.75;;
12177;SDS011;6152;48.728;9.256;2022-07-29T03:36:57;6.70;;;5.97;;
12177;SDS011;6152;48.728;9.256;2022-07-29T03:39:24;6.03;;;5.22;;
12177;SDS011;6152;48.728;9.256;2022-07-29T03:41:55;5.65;;;5.07;;
12177;SDS011;6152;48.728;9.256;2022-07-29T03:44:24;6.70;;;5.47;;
12177;SDS011;6152;48.728;9.256;2022-07-29T03:46:52;6.05;;;5.55;;
12177;SDS011;6152;48.728;9.256;2022-07-29T03:49:23;5.90;;;5.30;;
12177;SDS011;6152;48.728;9.256;2022-07-29T03:51:51;6.38;;;5.13;;
12177;SDS011;6152;48.728;9.256;2022-07-29T03:54:17;5.90;;;5.40;;
12177;SDS011;6152;48.728;9.256;2022-07-29T03:56:45;6.80;;;5.50;;
12177;SDS011;6152;48.728;9.256;2022-07-29T03:59:13;10.55;;;6.45;;
12177;SDS011;6152;48.728;9.256;2022-07-29T04:01:40;5.85;;;5.25;;
12177;SDS011;6152;48.728;9.256;2022-07-29T04:04:07;6.75;;;5.35;;
12177;SDS011;6152;48.728;9.256;2022-07-29T04:06:37;5.97;;;5.47;;
12177;SDS011;6152;48.728;9.256;2022-07-29T04:09:08;6.20;;;5.70;;
12177;SDS011;6152;48.728;9.256;2022-07-29T04:11:35;6.07;;;5.57;;
12177;SDS011;6152;48.728;9.256;2022-07-29T04:14:03;6.72;;;5.97;;
12177;SDS011;6152;48.728;9.256;2022-07-29T04:16:30;7.18;;;5.80;;
12177;SDS011;6152;48.728;9.256;2022-07-29T04:18:56;7.22;;;5.53;;
12177;SDS011;6152;48.728;9.256;2022-07-29T04:21:23;5.93;;;5.20;;
12177;SDS011;6152;48.728;9.256;2022-07-29T04:23:49;6.28;;;5.68;;
12177;SDS011;6152;48.728;9.256;2022-07-29T04:26:18;6.32;;;5.35;;
12177;SDS011;6152;48.728;9.256;2022-07-29T04:28:45;5.88;;;5.03;;
12177;SDS011;6152;48.728;9.256;2022-07-29T04:31:11;5.68;;;5.18;;
12177;SDS011;6152;48.728;9.256;2022-07-29T04:33:38;5.57;;;4.93;;
12177;SDS011;6152;48.728;9.256;2022-07-29T04:36:05;6.05;;;5.47;;
12177;SDS011;6152;48.728;9.256;2022-07-29T04:38:31;6.43;;;5.78;;
12177;SDS011;6152;48.728;9.256;2022-07-29T04:40:57;5.43;;;4.93;;
12177;SDS011;6152;48.728;9.256;2022-07-29T04:43:23;6.40;;;5.80;;
12177;SDS011;6152;48.728;9.256;2022-07-29T04:45:49;5.78;;;5.18;;
12177;SDS011;6152;48.728;9.256;2022-07-29T04:48:15;5.32;;;4.82;;
12177;SDS011;6152;48.728;9.256;2022-07-29T04:50:41;5.40;;;4.88;;
12177;SDS011;6152;48.728;9.256;2022-07-29T04:53:09;5.53;;;5.03;;
12177;SDS011;6152;48.728;9.256;2022-07-29T04:55:35;5.20;;;4.80;;
12177;SDS011;6152;48.728;9.256;2022-07-29T04:58:01;6.80;;;4.68;;
12177;SDS011;6152;48.728;9.256;2022-07-29T05:00:27;5.68;;;5.07;;
12177;SDS011;6152;48.728;9.256;2022-07-29T05:02:54;5.43;;;4.90;;
12177;SDS011;6152;48.728;9.256;2022-07-29T05:05:20;6.20;;;5.32;;
12177;SDS011;6152;48.728;9.256;2022-07-29T05:07:46;5.43;;;4.85;;
12177;SDS011;6152;48.728;9.256;2022-07-29T05:10:12;6.50;;;4.97;;
12177;SDS011;6152;48.728;9.256;2022-07-29T05:12:38;5.78;;;5.28;;
12177;SDS011;6152;48.728;9.256;2022-07-29T05:15:04;5.93;;;5.25;;
12177;SDS011;6152;48.728;9.256;2022-07-29T05:17:31;5.40;;;4.90;;
12177;SDS011;6152;48.728;9.256;2022-07-29T05:19:57;5.57;;;5.18;;
12177;SDS011;6152;48.728;9.256;2022-07-29T05:22:23;5.50;;;5.00;;
12177;SDS011;6152;48.728;9.256;2022-07-29T05:24:49;7.28;;;5.10;;
12177;SDS011;6152;48.728;9.256;2022-07-29T05:27:15;6.03;;;5.43;;
12177;SDS011;6152;48.728;9.256;2022-07-29T05:29:41;5.82;;;5.30;;
12177;SDS011;6152;48.728;9.256;2022-07-29T05:32:07;6.25;;;5.50;;
12177;SDS011;6152;48.728;9.256;2022-07-29T05:34:34;5.20;;;4.70;;
12177;SDS011;6152;48.728;9.256;2022-07-29T05:37:00;10.07;;;5.93;;
12177;SDS011;6152;48.728;9.256;2022-07-29T05:39:26;7.72;;;6.03;;
12177;SDS011;6152;48.728;9.256;2022-07-29T05:41:52;9.68;;;5.90;;
12177;SDS011;6152;48.728;9.256;2022-07-29T05:44:18;7.50;;;5.38;;
12177;SDS011;6152;48.728;9.256;2022-07-29T05:46:44;5.78;;;5.10;;
12177;SDS011;6152;48.728;9.256;2022-07-29T05:49:11;5.30;;;4.75;;
12177;SDS011;6152;48.728;9.256;2022-07-29T05:51:40;4.93;;;4.53;;
12177;SDS011;6152;48.728;9.256;2022-07-29T05:54:06;4.45;;;4.05;;
12177;SDS011;6152;48.728;9.256;2022-07-29T05:56:32;6.00;;;4.38;;
12177;SDS011;6152;48.728;9.256;2022-07-29T05:59:00;5.32;;;4.75;;
12177;SDS011;6152;48.728;9.256;2022-07-29T06:01:26;4.60;;;4.20;;
12177;SDS011;6152;48.728;9.256;2022-07-29T06:03:52;4.95;;;4.15;;
12177;SDS011;6152;48.728;9.256;2022-07-29T06:06:18;4.40;;;4.00;;
12177;SDS011;6152;48.728;9.256;2022-07-29T06:08:45;5.20;;;4.72;;
12177;SDS011;6152;48.728;9.256;2022-07-29T06:11:11;4.65;;;4.18;;
12177;SDS011;6152;48.728;9.256;2022-07-29T06:13:37;5.72;;;3.97;;
12177;SDS011;6152;48.728;9.256;2022-07-29T06:16:03;5.30;;;4.25;;
12177;SDS011;6152;48.728;9.256;2022-07-29T06:18:29;4.78;;;4.32;;
12177;SDS011;6152;48.728;9.256;2022-07-29T06:20:55;5.80;;;5.00;;
12177;SDS011;6152;48.728;9.256;2022-07-29T06:23:22;4.20;;;3.80;;
12177;SDS011;6152;48.728;9.256;2022-07-29T06:25:48;5.35;;;4.90;;
12177;SDS011;6152;48.728;9.256;2022-07-29T06:28:14;7.05;;;4.82;;
12177;SDS011;6152;48.728;9.256;2022-07-29T06:30:40;4.80;;;4.40;;
12177;SDS011;6152;48.728;9.256;2022-07-29T06:33:06;4.30;;;4.00;;
12177;SDS011;6152;48.728;9.256;2022-07-29T06:35:33;4.60;;;4.20;;
12177;SDS011;6152;48.728;9.256;2022-07-29T06:38:00;7.28;;;4.70;;
12177;SDS011;6152;48.728;9.256;2022-07-29T06:40:27;5.30;;;3.90;;
12177;SDS011;6152;48.728;9.256;2022-07-29T06:43:12;4.40;;;4.00;;
12177;SDS011;6152;48.728;9.256;2022-07-29T06:45:38;3.83;;;3.50;;
12177;SDS011;6152;48.728;9.256;2022-07-29T06:48:06;6.75;;;3.95;;
12177;SDS011;6152;48.728;9.256;2022-07-29T06:50:32;4.80;;;4.03;;
12177;SDS011;6152;48.728;9.256;2022-07-29T06:52:58;3.10;;;2.88;;
12177;SDS011;6152;48.728;9.256;2022-07-29T06:55:25;4.18;;;3.80;;
12177;SDS011;6152;48.728;9.256;2022-07-29T06:57:51;4.43;;;3.50;;
12177;SDS011;6152;48.728;9.256;2022-07-29T07:00:17;4.80;;;3.85;;
12177;SDS011;6152;48.728;9.256;2022-07-29T07:02:43;3.65;;;3.35;;
12177;SDS011;6152;48.728;9.256;2022-07-29T07:05:09;3.33;;;3.10;;
12177;SDS011;6152;48.728;9.256;2022-07-29T07:07:35;3.58;;;2.88;;
12177;SDS011;6152;48.728;9.256;2022-07-29T07:10:02;3.35;;;2.60;;
12177;SDS011;6152;48.728;9.256;2022-07-29T07:12:28;3.67;;;2.80;;
12177;SDS011;6152;48.728;9.256;2022-07-29T07:14:54;4.32;;;3.00;;
12177;SDS011;6152;48.728;9.256;2022-07-29T07:17:20;3.05;;;2.85;;
12177;SDS011;6152;48.728;9.256;2022-07-29T07:19:47;3.10;;;2.90;;
12177;SDS011;6152;48.728;9.256;2022-07-29T07:22:13;3.00;;;2.63;;
12177;SDS011;6152;48.728;9.256;2022-07-29T07:24:39;2.92;;;2.72;;
12177;SDS011;6152;48.728;9.256;2022-07-29T07:27:05;3.78;;;2.38;;
12177;SDS011;6152;48.728;9.256;2022-07-29T07:29:31;3.70;;;2.70;;
12177;SDS011;6152;48.728;9.256;2022-07-29T07:31:57;3.28;;;3.08;;
12177;SDS011;6152;48.728;9.256;2022-07-29T07:34:23;2.85;;;2.65;;
12177;SDS011;6152;48.728;9.256;2022-07-29T07:36:50;2.90;;;2.63;;
12177;SDS011;6152;48.728;9.256;2022-07-29T07:39:16;2.42;;;2.33;;
12177;SDS011;6152;48.728;9.256;2022-07-29T07:41:42;2.88;;;2.67;;
12177;SDS011;6152;48.728;9.256;2022-07-29T07:44:08;2.78;;;2.35;;
12177;SDS011;6152;48.728;9.256;2022-07-29T07:46:34;3.22;;;2.72;;
12177;SDS011;6152;48.728;9.256;2022-07-29T07:49:00;3.00;;;2.85;;
12177;SDS011;6152;48.728;9.256;2022-07-29T07:51:26;2.70;;;2.50;;
12177;SDS011;6152;48.728;9.256;2022-07-29T07:53:52;3.25;;;2.70;;
12177;SDS011;6152;48.728;9.256;2022-07-29T07:56:19;3.10;;;2.67;;
12177;SDS011;6152;48.728;9.256;2022-07-29T07:58:45;2.75;;;2.53;;
12177;SDS011;6152;48.728;9.256;2022-07-29T08:01:11;2.75;;;2.10;;
12177;SDS011;6152;48.728;9.256;2022-07-29T08:03:37;2.60;;;2.50;;
12177;SDS011;6152;48.728;9.256;2022-07-29T08:06:03;2.60;;;2.40;;
12177;SDS011;6152;48.728;9.256;2022-07-29T08:08:30;3.35;;;2.30;;
12177;SDS011;6152;48.728;9.256;2022-07-29T08:10:56;2.78;;;2.58;;
12177;SDS011;6152;48.728;9.256;2022-07-29T08:13:24;2.83;;;2.63;;
12177;SDS011;6152;48.728;9.256;2022-07-29T08:15:55;3.22;;;3.03;;
12177;SDS011;6152;48.728;9.256;2022-07-29T08:18:27;2.92;;;2.72;;
12177;SDS011;6152;48.728;9.256;2022-07-29T08:20:54;3.05;;;2.60;;
12177;SDS011;6152;48.728;9.256;2022-07-29T08:23:21;4.05;;;2.72;;
12177;SDS011;6152;48.728;9.256;2022-07-29T08:25:48;2.70;;;2.50;;
12177;SDS011;6152;48.728;9.256;2022-07-29T08:28:14;2.58;;;2.47;;
12177;SDS011;6152;48.728;9.256;2022-07-29T08:30:41;3.17;;;2.72;;
12177;SDS011;6152;48.728;9.256;2022-07-29T08:33:07;2.95;;;2.75;;
12177;SDS011;6152;48.728;9.256;2022-07-29T08:35:33;3.40;;;2.95;;
12177;SDS011;6152;48.728;9.256;2022-07-29T08:37:59;3.33;;;2.90;;
12177;SDS011;6152;48.728;9.256;2022-07-29T08:40:26;2.50;;;2.33;;
12177;SDS011;6152;48.728;9.256;2022-07-29T08:42:52;3.72;;;2.85;;
12177;SDS011;6152;48.728;9.256;2022-07-29T08:45:18;2.88;;;2.67;;
12177;SDS011;6152;48.728;9.256;2022-07-29T08:47:45;2.80;;;2.60;;
12177;SDS011;6152;48.728;9.256;2022-07-29T08:50:11;2.75;;;2.63;;
12177;SDS011;6152;48.728;9.256;2022-07-29T08:52:38;2.63;;;2.42;;
12177;SDS011;6152;48.728;9.256;2022-07-29T08:55:06;3.22;;;2.92;;
12177;SDS011;6152;48.728;9.256;2022-07-29T08:57:34;2.95;;;2.60;;
12177;SDS011;6152;48.728;9.256;2022-07-29T09:00:01;2.72;;;2.60;;
12177;SDS011;6152;48.728;9.256;2022-07-29T09:02:32;3.17;;;2.95;;
12177;SDS011;6152;48.728;9.256;2022-07-29T09:05:03;3.40;;;3.10;;
12177;SDS011;6152;48.728;9.256;2022-07-29T09:07:30;3.17;;;2.85;;
12177;SDS011;6152;48.728;9.256;2022-07-29T09:09:57;3.13;;;2.92;;
12177;SDS011;6152;48.728;9.256;2022-07-29T09:12:24;3.45;;;2.97;;
12177;SDS011;6152;48.728;9.256;2022-07-29T09:14:50;3.05;;;2.85;;
12177;SDS011;6152;48.728;9.256;2022-07-29T09:17:17;3.03;;;2.85;;
12177;SDS011;6152;48.728;9.256;2022-07-29T09:20:10;4.20;;;3.03;;
12177;SDS011;6152;48.728;9.256;2022-07-29T09:22:38;3.17;;;2.80;;
12177;SDS011;6152;48.728;9.256;2022-07-29T09:25:04;3.13;;;2.92;;
12177;SDS011;6152;48.728;9.256;2022-07-29T09:27:30;4.22;;;3.15;;
12177;SDS011;6152;48.728;9.256;2022-07-29T09:29:59;3.17;;;3.03;;
12177;SDS011;6152;48.728;9.256;2022-07-29T09:32:53;3.42;;;3.15;;
12177;SDS011;6152;48.728;9.256;2022-07-29T09:35:22;3.25;;;3.08;;
12177;SDS011;6152;48.728;9.256;2022-07-29T09:37:50;3.53;;;3.33;;
12177;SDS011;6152;48.728;9.256;2022-07-29T09:40:20;4.47;;;3.20;;
12177;SDS011;6152;48.728;9.256;2022-07-29T09:42:46;3.72;;;3.33;;
12177;SDS011;6152;48.728;9.256;2022-07-29T09:45:25;3.30;;;3.10;;
12177;SDS011;6152;48.728;9.256;2022-07-29T09:47:51;3.15;;;2.88;;
12177;SDS011;6152;48.728;9.256;2022-07-29T09:50:19;3.45;;;3.25;;
12177;SDS011;6152;48.728;9.256;2022-07-29T09:52:52;3.90;;;3.60;;
12177;SDS011;6152;48.728;9.256;2022-07-29T09:55:18;3.13;;;2.90;;
12177;SDS011;6152;48.728;9.256;2022-07-29T09:57:45;3.40;;;3.25;;
12177;SDS011;6152;48.728;9.256;2022-07-29T10:00:16;3.88;;;3.17;;
12177;SDS011;6152;48.728;9.256;2022-07-29T10:02:44;3.70;;;3.50;;
12177;SDS011;6152;48.728;9.256;2022-07-29T10:05:18;3.88;;;3.47;;
12177;SDS011;6152;48.728;9.256;2022-07-29T10:07:47;3.38;;;3.10;;
12177;SDS011;6152;48.728;9.256;2022-07-29T10:10:18;2.95;;;2.85;;
12177;SDS011;6152;48.728;9.256;2022-07-29T10:12:57;3.40;;;3.20;;
12177;SDS011;6152;48.728;9.256;2022-07-29T10:15:26;3.85;;;3.30;;
12177;SDS011;6152;48.728;9.256;2022-07-29T10:17:54;4.30;;;3.38;;
12177;SDS011;6152;48.728;9.256;2022-07-29T10:20:22;3.80;;;3.47;;
12177;SDS011;6152;48.728;9.256;2022-07-29T10:22:49;3.30;;;3.10;;
12177;SDS011;6152;48.728;9.256;2022-07-29T10:25:18;4.88;;;3.85;;
12177;SDS011;6152;48.728;9.256;2022-07-29T10:27:45;3.90;;;3.60;;
12177;SDS011;6152;48.728;9.256;2022-07-29T10:30:19;3.63;;;3.33;;
12177;SDS011;6152;48.728;9.256;2022-07-29T10:38:20;3.20;;;3.00;;
12177;SDS011;6152;48.728;9.256;2022-07-29T10:43:46;3.85;;;3.60;;
12177;SDS011;6152;48.728;9.256;2022-07-29T10:46:13;4.57;;;3.75;;
12177;SDS011;6152;48.728;9.256;2022-07-29T11:00:25;4.10;;;3.80;;
12177;SDS011;6152;48.728;9.256;2022-07-29T11:05:17;4.78;;;4.13;;
12177;SDS011;6152;48.728;9.256;2022-07-29T11:10:42;5.53;;;3.70;;
12177;SDS011;6152;48.728;9.256;2022-07-29T11:13:08;4.20;;;3.83;;
12177;SDS011;6152;48.728;9.256;2022-07-29T11:15:55;4.00;;;3.45;;
12177;SDS011;6152;48.728;9.256;2022-07-29T11:18:22;3.45;;;3.20;;
12177;SDS011;6152;48.728;9.256;2022-07-29T11:20:49;4.75;;;4.25;;
12177;SDS011;6152;48.728;9.256;2022-07-29T11:23:31;10.80;;;4.28;;
12177;SDS011;6152;48.728;9.256;2022-07-29T11:37:13;1.20;;;1.20;;
12177;SDS011;6152;48.728;9.256;2022-07-29T11:45:06;2.28;;;2.10;;
12177;SDS011;6152;48.728;9.256;2022-07-29T11:50:29;2.08;;;1.90;;
12177;SDS011;6152;48.728;9.256;2022-07-29T11:52:56;2.72;;;1.75;;
12177;SDS011;6152;48.728;9.256;2022-07-29T11:55:23;3.42;;;2.00;;
12177;SDS011;6152;48.728;9.256;2022-07-29T12:00:36;2.88;;;2.28;;
12177;SDS011;6152;48.728;9.256;2022-07-29T12:03:09;6.10;;;2.58;;
12177;SDS011;6152;48.728;9.256;2022-07-29T12:05:40;2.55;;;2.28;;
12177;SDS011;6152;48.728;9.256;2022-07-29T12:08:11;2.08;;;1.95;;
12177;SDS011;6152;48.728;9.256;2022-07-29T12:10:40;4.38;;;2.70;;
12177;SDS011;6152;48.728;9.256;2022-07-29T12:13:06;2.75;;;2.10;;
12177;SDS011;6152;48.728;9.256;2022-07-29T12:15:33;3.47;;;2.63;;
12177;SDS011;6152;48.728;9.256;2022-07-29T12:18:09;2.95;;;2.38;;
12177;SDS011;6152;48.728;9.256;2022-07-29T12:20:36;2.83;;;2.53;;
12177;SDS011;6152;48.728;9.256;2022-07-29T12:23:06;3.53;;;2.70;;
12177;SDS011;6152;48.728;9.256;2022-07-29T12:25:34;3.63;;;2.60;;
12177;SDS011;6152;48.728;9.256;2022-07-29T12:28:06;4.05;;;2.72;;
12177;SDS011;6152;48.728;9.256;2022-07-29T12:30:38;2.30;;;2.10;;
12177;SDS011;6152;48.728;9.256;2022-07-29T12:33:23;2.75;;;2.40;;
12177;SDS011;6152;48.728;9.256;2022-07-29T12:36:02;2.60;;;2.40;;
12177;SDS011;6152;48.728;9.256;2022-07-29T12:38:28;2.97;;;2.67;;
12177;SDS011;6152;48.728;9.256;2022-07-29T12:40:55;2.90;;;2.70;;
12177;SDS011;6152;48.728;9.256;2022-07-29T12:43:22;6.32;;;4.00;;
12177;SDS011;6152;48.728;9.256;2022-07-29T12:45:53;4.88;;;3.15;;
12177;SDS011;6152;48.728;9.256;2022-07-29T12:48:33;4.63;;;3.08;;
12177;SDS011;6152;48.728;9.256;2022-07-29T12:51:00;4.93;;;3.78;;
12177;SDS011;6152;48.728;9.256;2022-07-29T12:53:28;7.05;;;5.85;;
12177;SDS011;6152;48.728;9.256;2022-07-29T12:55:55;5.28;;;4.70;;
12177;SDS011;6152;48.728;9.256;2022-07-29T13:01:02;6.05;;;5.45;;
12177;SDS011;6152;48.728;9.256;2022-07-29T13:09:08;4.05;;;3.65;;
12177;SDS011;6152;48.728;9.256;2022-07-29T13:11:34;5.60;;;4.57;;
12177;SDS011;6152;48.728;9.256;2022-07-29T13:14:03;5.63;;;5.03;;
12177;SDS011;6152;48.728;9.256;2022-07-29T13:16:31;5.78;;;4.65;;
12177;SDS011;6152;48.728;9.256;2022-07-29T13:19:03;5.35;;;4.85;;
12177;SDS011;6152;48.728;9.256;2022-07-29T13:21:31;4.20;;;3.80;;
12177;SDS011;6152;48.728;9.256;2022-07-29T13:23:57;5.55;;;4.45;;
12177;SDS011;6152;48.728;9.256;2022-07-29T13:26:24;6.05;;;4.68;;
12177;SDS011;6152;48.728;9.256;2022-07-29T13:28:50;6.95;;;4.43;;
12177;SDS011;6152;48.728;9.256;2022-07-29T13:31:16;5.20;;;4.75;;
12177;SDS011;6152;48.728;9.256;2022-07-29T13:33:42;6.15;;;5.00;;
12177;SDS011;6152;48.728;9.256;2022-07-29T13:36:08;6.05;;;5.07;;
12177;SDS011;6152;48.728;9.256;2022-07-29T13:38:34;6.85;;;5.75;;
12177;SDS011;6152;48.728;9.256;2022-07-29T13:41:00;9.20;;;6.40;;
12177;SDS011;6152;48.728;9.256;2022-07-29T13:43:26;7.82;;;5.78;;
12177;SDS011;6152;48.728;9.256;2022-07-29T13:45:52;6.85;;;6.25;;
12177;SDS011;6152;48.728;9.256;2022-07-29T13:48:18;9.07;;;6.38;;
12177;SDS011;6152;48.728;9.256;2022-07-29T13:50:45;8.20;;;6.82;;
12177;SDS011;6152;48.728;9.256;2022-07-29T13:53:12;7.53;;;6.75;;
12177;SDS011;6152;48.728;9.256;2022-07-29T13:55:39;7.55;;;6.57;;
12177;SDS011;6152;48.728;9.256;2022-07-29T13:58:05;7.72;;;6.20;;
12177;SDS011;6152;48.728;9.256;2022-07-29T14:00:31;7.20;;;6.03;;
12177;SDS011;6152;48.728;9.256;2022-07-29T14:02:57;7.07;;;6.40;;
12177;SDS011;6152;48.728;9.256;2022-07-29T14:05:24;7.47;;;6.32;;
12177;SDS011;6152;48.728;9.256;2022-07-29T14:07:50;8.75;;;7.95;;
12177;SDS011;6152;48.728;9.256;2022-07-29T14:10:16;8.15;;;6.40;;
12177;SDS011;6152;48.728;9.256;2022-07-29T14:12:42;7.97;;;6.97;;
12177;SDS011;6152;48.728;9.256;2022-07-29T14:15:08;7.72;;;6.40;;
12177;SDS011;6152;48.728;9.256;2022-07-29T14:17:34;7.22;;;6.57;;
12177;SDS011;6152;48.728;9.256;2022-07-29T14:20:00;7.25;;;6.55;;
12177;SDS011;6152;48.728;9.256;2022-07-29T14:22:27;7.03;;;6.32;;
12177;SDS011;6152;48.728;9.256;2022-07-29T14:24:54;8.13;;;7.30;;
12177;SDS011;6152;48.728;9.256;2022-07-29T14:27:20;9.50;;;7.10;;
12177;SDS011;6152;48.728;9.256;2022-07-29T14:29:46;7.55;;;6.78;;
12177;SDS011;6152;48.728;9.256;2022-07-29T14:32:12;9.85;;;7.10;;
12177;SDS011;6152;48.728;9.256;2022-07-29T14:34:39;8.85;;;7.55;;
12177;SDS011;6152;48.728;9.256;2022-07-29T14:37:05;9.25;;;7.75;;
12177;SDS011;6152;48.728;9.256;2022-07-29T14:39:33;8.77;;;7.05;;
12177;SDS011;6152;48.728;9.256;2022-07-29T14:42:00;8.02;;;7.20;;
12177;SDS011;6152;48.728;9.256;2022-07-29T14:44:27;9.65;;;7.40;;
12177;SDS011;6152;48.728;9.256;2022-07-29T14:46:56;7.53;;;6.88;;
12177;SDS011;6152;48.728;9.256;2022-07-29T14:49:24;6.32;;;5.82;;
12177;SDS011;6152;48.728;9.256;2022-07-29T14:51:51;7.78;;;7.03;;
12177;SDS011;6152;48.728;9.256;2022-07-29T14:54:18;7.30;;;6.57;;
12177;SDS011;6152;48.728;9.256;2022-07-29T14:56:44;7.00;;;6.40;;
12177;SDS011;6152;48.728;9.256;2022-07-29T14:59:11;8.10;;;7.30;;
12177;SDS011;6152;48.728;9.256;2022-07-29T15:01:37;9.23;;;6.68;;
12177;SDS011;6152;48.728;9.256;2022-07-29T15:04:03;9.38;;;7.30;;
12177;SDS011;6152;48.728;9.256;2022-07-29T15:06:29;7.63;;;6.85;;
12177;SDS011;6152;48.728;9.256;2022-07-29T15:08:56;7.72;;;7.13;;
12177;SDS011;6152;48.728;9.256;2022-07-29T15:11:22;7.82;;;7.15;;
12177;SDS011;6152;48.728;9.256;2022-07-29T15:13:48;7.75;;;6.95;;
12177;SDS011;6152;48.728;9.256;2022-07-29T15:16:14;7.63;;;6.78;;
12177;SDS011;6152;48.728;9.256;2022-07-29T15:18:41;7.90;;;6.88;;
12177;SDS011;6152;48.728;9.256;2022-07-29T15:21:07;8.07;;;7.22;;
12177;SDS011;6152;48.728;9.256;2022-07-29T15:23:33;7.78;;;7.07;;
12177;SDS011;6152;48.728;9.256;2022-07-29T15:26:03;7.65;;;6.93;;
12177;SDS011;6152;48.728;9.256;2022-07-29T15:28:29;6.90;;;6.20;;
12177;SDS011;6152;48.728;9.256;2022-07-29T15:30:56;6.00;;;5.50;;
12177;SDS011;6152;48.728;9.256;2022-07-29T15:33:22;6.03;;;5.50;;
12177;SDS011;6152;48.728;9.256;2022-07-29T15:35:48;5.75;;;5.32;;
12177;SDS011;6152;48.728;9.256;2022-07-29T15:38:15;8.07;;;5.50;;
12177;SDS011;6152;48.728;9.256;2022-07-29T15:40:41;5.80;;;5.28;;
12177;SDS011;6152;48.728;9.256;2022-07-29T15:43:08;6.90;;;5.85;;
12177;SDS011;6152;48.728;9.256;2022-07-29T15:45:35;5.75;;;5.28;;
12177;SDS011;6152;48.728;9.256;2022-07-29T15:48:03;6.30;;;5.80;;
12177;SDS011;6152;48.728;9.256;2022-07-29T15:50:31;7.28;;;6.57;;
12177;SDS011;6152;48.728;9.256;2022-07-29T15:52:57;6.43;;;5.82;;
12177;SDS011;6152;48.728;9.256;2022-07-29T15:55:24;5.70;;;5.20;;
12177;SDS011;6152;48.728;9.256;2022-07-29T15:57:50;6.30;;;5.70;;
12177;SDS011;6152;48.728;9.256;2022-07-29T16:00:16;5.72;;;5.00;;
12177;SDS011;6152;48.728;9.256;2022-07-29T16:02:43;5.40;;;5.00;;
12177;SDS011;6152;48.728;9.256;2022-07-29T16:05:09;6.78;;;6.18;;
12177;SDS011;6152;48.728;9.256;2022-07-29T16:07:36;5.70;;;5.28;;
12177;SDS011;6152;48.728;9.256;2022-07-29T16:10:02;6.05;;;5.55;;
12177;SDS011;6152;48.728;9.256;2022-07-29T16:12:28;6.30;;;5.70;;
12177;SDS011;6152;48.728;9.256;2022-07-29T16:14:55;6.78;;;6.28;;
12177;SDS011;6152;48.728;9.256;2022-07-29T16:17:21;5.68;;;5.03;;
12177;SDS011;6152;48.728;9.256;2022-07-29T16:19:47;6.97;;;6.00;;